TimeEDT,TemperatureF,Dew PointF,Humidity,Sea Level PressureIn,VisibilityMPH,Wind Direction,Wind SpeedMPH,Gust SpeedMPH,PrecipitationIn,Events,Conditions,WindDirDegrees,DateUTC
12:53 AM,34.0,15.1,46,30.03,10.0,Calm,Calm,-,N/A,,Clear,0,2013-04-02 04:53:00
1:53 AM,34.0,12.9,42,30.03,10.0,Calm,Calm,-,N/A,,Mostly Cloudy,0,2013-04-02 05:53:00
2:53 AM,34.0,14.0,44,30.03,10.0,North,5.8,-,N/A,,Overcast,360,2013-04-02 06:53:00
3:53 AM,34.0,14.0,44,30.03,10.0,North,6.9,-,N/A,,Overcast,350,2013-04-02 07:53:00
4:53 AM,32.0,16.0,52,30.04,10.0,NNW,6.9,-,N/A,,Clear,330,2013-04-02 08:53:00
5:53 AM,30.0,17.1,59,30.06,10.0,WNW,8.1,-,N/A,,Clear,290,2013-04-02 09:53:00
6:53 AM,30.0,16.0,56,30.09,10.0,NW,8.1,-,N/A,,Clear,310,2013-04-02 10:53:00
7:53 AM,30.9,18.0,59,30.12,10.0,NW,5.8,-,N/A,,Mostly Cloudy,320,2013-04-02 11:53:00
8:53 AM,35.1,16.0,46,30.15,10.0,WNW,11.5,-,N/A,,Overcast,300,2013-04-02 12:53:00
9:53 AM,37.0,15.1,41,30.15,10.0,WNW,15.0,-,N/A,,Overcast,300,2013-04-02 13:53:00
10:53 AM,37.0,16.0,42,30.15,10.0,WNW,15.0,21.9,N/A,,Overcast,290,2013-04-02 14:53:00
11:53 AM,36.0,15.1,43,30.16,10.0,WNW,10.4,-,N/A,,Overcast,300,2013-04-02 15:53:00
12:53 PM,39.0,14.0,36,30.15,10.0,NW,15.0,21.9,N/A,,Mostly Cloudy,310,2013-04-02 16:53:00
1:53 PM,42.1,15.1,34,30.14,10.0,WNW,20.7,26.5,N/A,,Mostly Cloudy,300,2013-04-02 17:53:00
2:53 PM,42.1,14.0,32,30.12,10.0,NW,17.3,24.2,N/A,,Scattered Clouds,310,2013-04-02 18:53:00
3:53 PM,44.1,14.0,30,30.11,10.0,NW,19.6,27.6,N/A,,Partly Cloudy,310,2013-04-02 19:53:00
4:53 PM,44.1,12.9,28,30.11,10.0,NNW,15.0,26.5,N/A,,Clear,330,2013-04-02 20:53:00
5:53 PM,43.0,12.0,28,30.12,10.0,NW,16.1,-,N/A,,Partly Cloudy,320,2013-04-02 21:53:00
6:53 PM,41.0,12.9,32,30.14,10.0,WNW,13.8,-,N/A,,Clear,300,2013-04-02 22:53:00
7:53 PM,37.9,12.9,36,30.16,10.0,WNW,13.8,-,N/A,,Clear,300,2013-04-02 23:53:00
8:53 PM,35.1,14.0,42,30.18,10.0,WNW,6.9,-,N/A,,Clear,290,2013-04-03 00:53:00
9:53 PM,34.0,14.0,44,30.20,10.0,NW,6.9,-,N/A,,Clear,320,2013-04-03 01:53:00
10:53 PM,34.0,15.1,46,30.21,10.0,WNW,9.2,-,N/A,,Clear,300,2013-04-03 02:53:00
11:53 PM,33.1,14.0,46,30.21,10.0,NNW,4.6,-,N/A,,Clear,330,2013-04-03 03:53:00